Time;durP1;ratioP1;P1;durP2;ratioP2;P2;SDS_P1;SDS_P2;PMS_P1;PMS_P2;Temp;Humidity;BMP_temperature;BMP_pressure;BME280_temperature;BME280_humidity;BME280_pressure;Samples;Min_cycle;Max_cycle;Signal;HPM_P1;HPM_P2
2022/10/13 00:01:16;;;;;;;9.15;2.00;;;;;;;-142.37;100.00;59669.53;5095522;28;20024;-71
2022/10/13 00:03:45;;;;;;;7.40;1.88;;;;;;;-142.37;100.00;59669.53;5095680;28;20124;-72
2022/10/13 00:06:13;;;;;;;7.13;1.50;;;;;;;-142.37;100.00;59669.53;5113880;28;20027;-72
2022/10/13 00:08:39;;;;;;;6.18;1.65;;;;;;;-142.37;100.00;59669.53;5095712;28;20039;-72
2022/10/13 00:11:23;;;;;;;9.02;1.88;;;;;;;-142.37;100.00;59669.53;5113233;28;20545;-71
2022/10/13 00:13:49;;;;;;;11.07;2.70;;;;;;;-142.37;100.00;59669.53;5114271;28;20115;-72
2022/10/13 00:16:17;;;;;;;7.63;2.00;;;;;;;-142.37;100.00;59669.53;5095299;28;20020;-72
2022/10/13 00:18:43;;;;;;;6.18;1.83;;;;;;;-142.37;100.00;59669.53;5095229;28;20027;-71
2022/10/13 00:21:16;;;;;;;10.95;2.65;;;;;;;-142.37;100.00;59669.53;5095329;28;20019;-71
2022/10/13 00:23:42;;;;;;;7.50;1.60;;;;;;;-142.37;100.00;59669.53;5095362;28;20024;-70
2022/10/13 00:26:10;;;;;;;9.45;2.20;;;;;;;-142.37;100.00;59669.53;5113638;28;20028;-70
2022/10/13 00:28:37;;;;;;;10.55;1.73;;;;;;;-142.37;100.00;59669.53;5095135;28;20035;-70
2022/10/13 00:31:03;;;;;;;6.20;2.10;;;;;;;-142.37;100.00;59669.53;5094882;28;20055;-71
2022/10/13 00:33:28;;;;;;;6.68;2.20;;;;;;;-142.37;100.00;59669.53;5095267;28;20035;-72
2022/10/13 00:35:54;;;;;;;9.23;2.20;;;;;;;-142.37;100.00;59669.53;5095116;28;20028;-70
2022/10/13 00:38:21;;;;;;;8.90;1.80;;;;;;;-142.37;100.00;59669.53;5113366;28;20062;-71
2022/10/13 00:40:52;;;;;;;8.27;1.40;;;;;;;-142.37;100.00;59669.53;5095394;28;20147;-72
2022/10/13 00:43:22;;;;;;;5.15;1.50;;;;;;;-142.37;100.00;59669.53;5094708;28;20035;-72
2022/10/13 00:45:51;;;;;;;12.50;3.33;;;;;;;-142.37;100.00;59669.53;5113194;28;20038;-71
2022/10/13 00:48:19;;;;;;;11.15;2.50;;;;;;;-142.37;100.00;59669.53;5113472;28;20024;-70
2022/10/13 00:50:46;;;;;;;12.93;2.25;;;;;;;-142.37;100.00;59669.53;5113204;28;20024;-71
2022/10/13 00:53:15;;;;;;;11.15;1.90;;;;;;;-142.37;100.00;59669.53;5112887;28;20020;-71
2022/10/13 00:55:43;;;;;;;7.15;1.95;;;;;;;-142.37;100.00;59669.53;5113038;28;20043;-71
2022/10/13 00:58:15;;;;;;;8.85;2.00;;;;;;;-142.37;100.00;59669.53;5113233;28;20043;-71
2022/10/13 01:00:44;;;;;;;10.55;2.33;;;;;;;-142.37;100.00;59669.53;5113217;28;20028;-71
2022/10/13 01:03:10;;;;;;;9.68;2.28;;;;;;;-142.37;100.00;59669.53;5094544;28;20031;-72
2022/10/13 01:05:37;;;;;;;13.40;1.98;;;;;;;-142.37;100.00;59669.53;5112970;28;20031;-71
2022/10/13 01:08:03;;;;;;;6.82;2.30;;;;;;;-142.37;100.00;59669.53;5112920;28;20034;-72
2022/10/13 01:11:05;;;;;;;8.75;2.10;;;;;;;-142.37;100.00;59669.53;5112688;28;20070;-71
2022/10/13 01:13:44;;;;;;;7.68;2.17;;;;;;;-142.37;100.00;59669.53;5094549;28;20038;-71
2022/10/13 01:16:23;;;;;;;9.27;2.83;;;;;;;-142.37;100.00;59669.53;5094456;28;20028;-70
2022/10/13 01:19:17;;;;;;;5.30;2.00;;;;;;;-142.37;100.00;59669.53;5112680;28;20023;-71
2022/10/13 01:21:53;;;;;;;13.43;1.77;;;;;;;-142.37;100.00;59669.53;5093811;28;20054;-72
2022/10/13 01:24:40;;;;;;;13.77;1.85;;;;;;;-142.37;100.00;59669.53;5094302;28;20032;-71
2022/10/13 01:27:27;;;;;;;10.80;2.08;;;;;;;-142.37;100.00;59669.53;5112570;28;20042;-71
2022/10/13 01:30:04;;;;;;;10.60;2.28;;;;;;;-142.37;100.00;59669.53;5094528;28;20446;-71
2022/10/13 01:33:07;;;;;;;9.75;1.92;;;;;;;-142.37;100.00;59669.53;5094196;28;20030;-71
2022/10/13 01:35:40;;;;;;;9.02;2.13;;;;;;;-142.37;100.00;59669.53;5112519;28;20032;-72
2022/10/13 01:38:24;;;;;;;8.40;1.92;;;;;;;-142.37;100.00;59669.53;5112736;28;20027;-71
2022/10/13 01:41:01;;;;;;;10.60;1.80;;;;;;;-142.37;100.00;59669.53;5094362;28;20020;-71
2022/10/13 01:43:35;;;;;;;8.38;1.75;;;;;;;-142.37;100.00;59669.53;5112580;28;20019;-71
2022/10/13 01:46:13;;;;;;;7.35;2.13;;;;;;;-142.37;100.00;59669.53;5112349;28;20020;-72
2022/10/13 01:48:41;;;;;;;11.80;1.52;;;;;;;-142.37;100.00;59669.53;5112461;28;20055;-72
2022/10/13 01:51:13;;;;;;;8.15;1.63;;;;;;;-142.37;100.00;59669.53;5093935;28;20120;-71
2022/10/13 01:53:40;;;;;;;8.90;2.20;;;;;;;-142.37;100.00;59669.53;5094230;28;20039;-71
2022/10/13 01:56:06;;;;;;;9.95;2.15;;;;;;;-142.37;100.00;59669.53;5093844;28;20376;-73
2022/10/13 01:58:34;;;;;;;7.15;1.95;;;;;;;-142.37;100.00;59669.53;5094206;28;20023;-71
2022/10/13 02:01:33;;;;;;;4.93;1.83;;;;;;;-142.37;100.00;59669.53;5112382;28;20072;-72
2022/10/13 02:04:05;;;;;;;10.35;2.63;;;;;;;-142.37;100.00;59669.53;5093998;28;20032;-71
2022/10/13 02:07:12;;;;;;;10.80;2.72;;;;;;;-142.37;100.00;59669.53;5112132;28;20031;-72
2022/10/13 02:09:55;;;;;;;11.00;2.17;;;;;;;-142.37;100.00;59669.53;5098434;28;20078;-72
2022/10/13 02:12:34;;;;;;;8.50;2.20;;;;;;;-142.37;100.00;59669.53;5112299;28;20023;-72
2022/10/13 02:15:01;;;;;;;10.45;2.20;;;;;;;-142.37;100.00;59669.53;5093619;28;20033;-72
2022/10/13 02:17:27;;;;;;;9.07;2.30;;;;;;;-142.37;100.00;59669.53;5093832;28;20023;-71
2022/10/13 02:19:54;;;;;;;12.27;2.90;;;;;;;-142.37;100.00;59669.53;5112316;28;20540;-72
2022/10/13 02:22:23;;;;;;;10.05;1.98;;;;;;;-142.37;100.00;59669.53;5112282;28;20032;-70
2022/10/13 02:24:48;;;;;;;15.23;3.10;;;;;;;-142.37;100.00;59669.53;5093857;28;20051;-71
2022/10/13 02:27:15;;;;;;;8.35;2.17;;;;;;;-142.37;100.00;59669.53;5112247;28;20125;-71
2022/10/13 02:29:53;;;;;;;10.05;2.47;;;;;;;-142.37;100.00;59669.53;5112072;28;20036;-71
2022/10/13 02:32:19;;;;;;;7.03;1.45;;;;;;;-142.37;100.00;59669.53;5111985;28;20167;-71
2022/10/13 02:34:46;;;;;;;6.88;2.00;;;;;;;-142.37;100.00;59669.53;5115436;28;20024;-71
2022/10/13 02:37:11;;;;;;;8.10;1.63;;;;;;;-142.37;100.00;59669.53;5115516;28;20076;-71
2022/10/13 02:39:37;;;;;;;10.40;2.10;;;;;;;-142.37;100.00;59669.53;5115673;28;20028;-71
2022/10/13 02:42:03;;;;;;;11.75;2.65;;;;;;;-142.37;100.00;59669.53;5097578;28;20093;-73
2022/10/13 02:44:29;;;;;;;7.20;2.00;;;;;;;-142.37;100.00;59669.53;5097390;28;20038;-72
2022/10/13 02:46:54;;;;;;;5.97;2.05;;;;;;;-142.37;100.00;59669.53;5097058;28;20434;-73
2022/10/13 02:49:20;;;;;;;12.50;2.53;;;;;;;-142.37;100.00;59669.53;5115321;28;20576;-73
2022/10/13 02:51:46;;;;;;;10.75;2.80;;;;;;;-142.37;100.00;59669.53;5097066;28;20024;-72
2022/10/13 02:54:11;;;;;;;15.27;2.13;;;;;;;-142.37;100.00;59669.53;5115569;28;20106;-71
2022/10/13 02:56:37;;;;;;;14.35;2.67;;;;;;;-142.37;100.00;59669.53;5097296;28;20086;-71
2022/10/13 02:59:03;;;;;;;11.57;2.28;;;;;;;-142.37;100.00;59669.53;5096892;28;20034;-72
2022/10/13 03:01:28;;;;;;;11.48;3.17;;;;;;;-142.37;100.00;59669.53;5115553;28;20141;-72
2022/10/13 03:03:54;;;;;;;7.95;2.58;;;;;;;-142.37;100.00;59669.53;5115421;28;20028;-72
2022/10/13 03:06:20;;;;;;;9.02;2.78;;;;;;;-142.37;100.00;59669.53;5097519;28;20059;-72
2022/10/13 03:08:45;;;;;;;11.25;3.22;;;;;;;-142.37;100.00;59669.53;5115249;28;20023;-71
2022/10/13 03:11:11;;;;;;;9.50;2.47;;;;;;;-142.37;100.00;59669.53;5114825;28;20050;-72
2022/10/13 03:13:37;;;;;;;8.93;2.30;;;;;;;-142.37;100.00;59669.53;5115017;28;20027;-72
2022/10/13 03:16:03;;;;;;;7.72;2.53;;;;;;;-142.37;100.00;59669.53;5115242;28;20023;-72
2022/10/13 03:18:29;;;;;;;9.02;2.03;;;;;;;-142.37;100.00;59669.53;5115105;28;20028;-71
2022/10/13 03:20:59;;;;;;;10.32;2.60;;;;;;;-142.37;100.00;59669.53;5096754;28;20081;-71
2022/10/13 03:23:25;;;;;;;6.85;2.42;;;;;;;-142.37;100.00;59669.53;5115176;28;20039;-71
2022/10/13 03:25:51;;;;;;;16.13;3.75;;;;;;;-142.37;100.00;59669.53;5115008;28;20023;-71
2022/10/13 03:28:17;;;;;;;11.50;2.42;;;;;;;-142.37;100.00;59669.53;5114686;28;20472;-72
2022/10/13 03:30:42;;;;;;;8.90;2.08;;;;;;;-142.37;100.00;59669.53;5096481;28;20028;-72
2022/10/13 03:33:08;;;;;;;11.30;2.35;;;;;;;-142.37;100.00;59669.53;5114409;28;20100;-72
2022/10/13 03:35:34;;;;;;;8.95;2.20;;;;;;;-142.37;100.00;59669.53;5114728;28;20039;-72
2022/10/13 03:38:00;;;;;;;9.82;2.72;;;;;;;-142.37;100.00;59669.53;5114500;28;20395;-71
2022/10/13 03:40:26;;;;;;;8.90;2.83;;;;;;;-142.37;100.00;59669.53;5114595;28;20031;-71
2022/10/13 03:42:51;;;;;;;9.95;2.30;;;;;;;-142.37;100.00;59669.53;5096169;28;20027;-72
2022/10/13 03:45:17;;;;;;;12.82;2.88;;;;;;;-142.37;100.00;59669.53;5095129;28;20023;-72
2022/10/13 03:47:42;;;;;;;10.35;2.80;;;;;;;-142.37;100.00;59669.53;5114184;28;20032;-72
2022/10/13 03:50:09;;;;;;;8.95;2.33;;;;;;;-142.37;100.00;59669.53;5114329;28;20035;-72
2022/10/13 03:52:34;;;;;;;10.15;2.45;;;;;;;-142.37;100.00;59669.53;5114078;28;20552;-72
2022/10/13 03:55:00;;;;;;;13.00;2.05;;;;;;;-142.37;100.00;59669.53;5113721;28;20032;-71
2022/10/13 03:57:25;;;;;;;10.60;2.75;;;;;;;-142.37;100.00;59669.53;5113578;28;20103;-72
2022/10/13 03:59:51;;;;;;;16.17;3.20;;;;;;;-142.37;100.00;59669.53;5114295;28;20132;-73
2022/10/13 04:02:17;;;;;;;14.57;2.58;;;;;;;-142.37;100.00;59669.53;5114090;28;20024;-73
2022/10/13 04:04:42;;;;;;;6.30;2.15;;;;;;;-142.37;100.00;59669.53;5113847;28;20023;-73
2022/10/13 04:07:08;;;;;;;10.93;2.30;;;;;;;-142.37;100.00;59669.53;5095359;28;20437;-73
2022/10/13 04:09:33;;;;;;;10.05;2.88;;;;;;;-142.37;100.00;59669.53;5095198;28;20035;-72
2022/10/13 04:11:59;;;;;;;17.40;3.75;;;;;;;-142.37;100.00;59669.53;5095340;28;20027;-72
2022/10/13 04:14:25;;;;;;;11.70;2.47;;;;;;;-142.37;100.00;59669.53;5095592;28;20387;-71
2022/10/13 04:16:51;;;;;;;10.82;3.45;;;;;;;-142.37;100.00;59669.53;5114045;28;20016;-71
2022/10/13 04:19:17;;;;;;;6.97;2.25;;;;;;;-142.37;100.00;59669.53;5113485;28;20028;-73
2022/10/13 04:21:43;;;;;;;13.15;3.70;;;;;;;-142.37;100.00;59669.53;5113210;28;20023;-70
2022/10/13 04:24:11;;;;;;;9.23;3.00;;;;;;;-142.37;100.00;59669.53;5113013;28;20049;-71
2022/10/13 04:26:37;;;;;;;12.10;2.90;;;;;;;-142.37;100.00;59669.53;5113300;28;20023;-71
2022/10/13 04:29:05;;;;;;;12.15;3.20;;;;;;;-142.37;100.00;59669.53;5113124;28;20110;-72
2022/10/13 04:31:31;;;;;;;11.77;2.65;;;;;;;-142.37;100.00;59669.53;5113235;28;20028;-72
2022/10/13 04:33:57;;;;;;;14.15;3.40;;;;;;;-142.37;100.00;59669.53;5094941;28;20028;-72
2022/10/13 04:36:23;;;;;;;11.70;2.72;;;;;;;-142.37;100.00;59669.53;5094760;28;20031;-73
2022/10/13 04:38:50;;;;;;;8.30;2.30;;;;;;;-142.37;100.00;59669.53;5112738;28;20099;-72
2022/10/13 04:41:17;;;;;;;13.38;3.10;;;;;;;-142.37;100.00;59669.53;5094527;28;20503;-72
2022/10/13 04:43:48;;;;;;;9.90;2.80;;;;;;;-142.37;100.00;59669.53;5112982;28;20047;-74
2022/10/13 04:46:17;;;;;;;6.88;2.35;;;;;;;-142.37;100.00;59669.53;5112938;28;20095;-72
2022/10/13 04:48:44;;;;;;;8.55;3.00;;;;;;;-142.37;100.00;59669.53;5094230;28;20031;-74
2022/10/13 04:51:12;;;;;;;11.20;2.85;;;;;;;-142.37;100.00;59669.53;5112256;28;20027;-72
2022/10/13 04:53:39;;;;;;;9.40;2.35;;;;;;;-142.37;100.00;59669.53;5112537;28;20547;-72
2022/10/13 04:56:11;;;;;;;11.02;2.15;;;;;;;-142.37;100.00;59669.53;5112792;28;20127;-73
2022/10/13 04:58:38;;;;;;;10.68;2.38;;;;;;;-142.37;100.00;59669.53;5094454;28;20023;-71
2022/10/13 05:01:06;;;;;;;8.73;2.83;;;;;;;-142.37;100.00;59669.53;5112461;28;20034;-72
2022/10/13 05:03:33;;;;;;;8.10;2.67;;;;;;;-142.37;100.00;59669.53;5115422;28;20046;-72
2022/10/13 05:05:58;;;;;;;7.13;2.67;;;;;;;-142.37;100.00;59669.53;5094615;28;20031;-74
2022/10/13 05:08:25;;;;;;;10.50;2.78;;;;;;;-142.37;100.00;59669.53;5093811;28;20115;-73
2022/10/13 05:10:59;;;;;;;17.08;4.38;;;;;;;-142.37;100.00;59669.53;5112372;28;20122;-73
2022/10/13 05:13:26;;;;;;;7.53;2.53;;;;;;;-142.37;100.00;59669.53;5094088;28;20032;-73
2022/10/13 05:15:52;;;;;;;10.43;2.78;;;;;;;-142.37;100.00;59669.53;5112143;28;20514;-73
2022/10/13 05:18:17;;;;;;;9.40;2.70;;;;;;;-142.37;100.00;59669.53;5093702;28;20027;-74
2022/10/13 05:20:43;;;;;;;13.45;3.00;;;;;;;-142.37;100.00;59669.53;5112022;28;20027;-72
2022/10/13 05:23:08;;;;;;;6.28;2.30;;;;;;;-142.37;100.00;59669.53;5112433;28;20098;-73
2022/10/13 05:25:36;;;;;;;8.40;2.83;;;;;;;-142.37;100.00;59669.53;5111581;28;20023;-73
2022/10/13 05:28:04;;;;;;;10.23;3.30;;;;;;;-142.37;100.00;59669.53;5112032;28;20028;-73
2022/10/13 05:30:30;;;;;;;10.65;3.15;;;;;;;-142.37;100.00;59669.53;5093594;28;20120;-73
2022/10/13 05:32:56;;;;;;;14.25;3.65;;;;;;;-142.37;100.00;59669.53;5093015;28;20126;-74
2022/10/13 05:35:23;;;;;;;13.07;2.70;;;;;;;-142.37;100.00;59669.53;5093260;28;20515;-72
2022/10/13 05:37:48;;;;;;;11.18;2.95;;;;;;;-142.37;100.00;59669.53;5093087;28;20027;-75
2022/10/13 05:40:14;;;;;;;9.88;2.30;;;;;;;-142.37;100.00;59669.53;5093594;28;20548;-74
2022/10/13 05:42:40;;;;;;;9.80;3.10;;;;;;;-142.37;100.00;59669.53;5093031;28;20028;-74
2022/10/13 05:45:08;;;;;;;10.23;3.17;;;;;;;-142.37;100.00;59669.53;5092868;28;20035;-73
2022/10/13 05:47:33;;;;;;;10.52;3.15;;;;;;;-142.37;100.00;59669.53;5092440;28;20111;-74
2022/10/13 05:49:59;;;;;;;10.85;3.72;;;;;;;-142.37;100.00;59669.53;5092733;28;20130;-72
2022/10/13 05:52:26;;;;;;;10.15;3.30;;;;;;;-142.37;100.00;59669.53;5093049;28;20026;-72
2022/10/13 05:54:57;;;;;;;9.13;2.53;;;;;;;-142.37;100.00;59669.53;5110933;28;20115;-73
2022/10/13 05:57:27;;;;;;;13.38;3.25;;;;;;;-142.37;100.00;59669.53;5092701;28;20406;-73
2022/10/13 06:00:09;;;;;;;11.18;3.13;;;;;;;-142.37;100.00;59669.53;5092370;28;20496;-73
2022/10/13 06:02:58;;;;;;;7.15;2.88;;;;;;;-142.37;100.00;59669.53;5111255;28;20039;-74
2022/10/13 06:05:25;;;;;;;10.77;3.08;;;;;;;-142.37;100.00;59669.53;5110445;28;20066;-74
2022/10/13 06:07:53;;;;;;;10.48;3.35;;;;;;;-142.37;100.00;59669.53;5093518;28;20089;-73
2022/10/13 06:10:21;;;;;;;13.32;2.85;;;;;;;-142.37;100.00;59669.53;5114963;28;20150;-73
2022/10/13 06:12:47;;;;;;;10.00;2.80;;;;;;;-142.37;100.00;59669.53;5096181;28;20024;-73
2022/10/13 06:15:12;;;;;;;12.95;3.50;;;;;;;-142.37;100.00;59669.53;5095819;28;20080;-75
2022/10/13 06:17:38;;;;;;;11.88;3.15;;;;;;;-142.37;100.00;59669.53;5114577;28;20392;-75
2022/10/13 06:20:05;;;;;;;7.78;2.83;;;;;;;-142.37;100.00;59669.53;5114859;28;20036;-73
2022/10/13 06:22:33;;;;;;;9.85;3.08;;;;;;;-142.37;100.00;59669.53;5096560;28;20046;-73
2022/10/13 06:24:59;;;;;;;8.82;2.95;;;;;;;-142.37;100.00;59669.53;5114257;28;20027;-74
2022/10/13 06:27:24;;;;;;;9.07;2.72;;;;;;;-142.37;100.00;59669.53;5114211;28;20545;-73
2022/10/13 06:29:50;;;;;;;12.50;4.03;;;;;;;-142.37;100.00;59669.53;5114075;28;20119;-75
2022/10/13 06:32:16;;;;;;;8.88;3.05;;;;;;;-142.37;100.00;59669.53;5096450;28;20051;-74
2022/10/13 06:34:42;;;;;;;11.38;2.38;;;;;;;-142.37;100.00;59669.53;5096106;28;20416;-74
2022/10/13 06:37:08;;;;;;;12.43;2.90;;;;;;;-142.37;100.00;59669.53;5114777;28;20024;-73
2022/10/13 06:39:34;;;;;;;11.20;3.85;;;;;;;-142.37;100.00;59669.53;5096162;28;20491;-74
2022/10/13 06:42:00;;;;;;;14.25;3.22;;;;;;;-142.37;100.00;59669.53;5096440;28;20377;-74
2022/10/13 06:44:25;;;;;;;10.20;2.67;;;;;;;-142.37;100.00;59669.53;5095711;28;20188;-75
2022/10/13 06:46:51;;;;;;;7.55;2.50;;;;;;;-142.37;100.00;59669.53;5113932;28;20103;-73
2022/10/13 06:49:17;;;;;;;12.20;3.53;;;;;;;-142.37;100.00;59669.53;5095701;28;20467;-72
2022/10/13 06:51:43;;;;;;;7.80;2.50;;;;;;;-142.37;100.00;59669.53;5115009;28;20039;-74
2022/10/13 06:54:08;;;;;;;12.10;2.90;;;;;;;-142.37;100.00;59669.53;5114364;28;20028;-74
2022/10/13 06:56:34;;;;;;;14.10;3.20;;;;;;;-142.37;100.00;59669.53;5113956;28;20162;-72
2022/10/13 06:59:00;;;;;;;7.78;1.90;;;;;;;-142.37;100.00;59669.53;5096598;28;20095;-73
2022/10/13 07:01:25;;;;;;;11.43;5.00;;;;;;;-142.37;100.00;59669.53;5119536;28;20087;-73
2022/10/13 07:03:51;;;;;;;8.27;2.65;;;;;;;-142.37;100.00;59669.53;5117427;28;20080;-75
2022/10/13 07:06:17;;;;;;;8.07;2.95;;;;;;;-142.37;100.00;59669.53;5097314;28;20131;-75
2022/10/13 07:08:43;;;;;;;11.25;2.60;;;;;;;-142.37;100.00;59669.53;5114118;28;20484;-73
2022/10/13 07:11:14;;;;;;;10.85;2.72;;;;;;;-142.37;100.00;59669.53;5114382;28;20070;-73
2022/10/13 07:13:41;;;;;;;12.52;3.25;;;;;;;-142.37;100.00;59669.53;5095820;28;20509;-75
2022/10/13 07:16:08;;;;;;;13.68;5.07;;;;;;;-142.37;100.00;59669.53;5095864;28;20028;-74
2022/10/13 07:18:34;;;;;;;10.43;3.53;;;;;;;-142.37;100.00;59669.53;5113715;28;20031;-73
2022/10/13 07:21:00;;;;;;;6.03;2.55;;;;;;;-142.37;100.00;59669.53;5112589;28;20039;-75
2022/10/13 07:23:27;;;;;;;11.00;3.05;;;;;;;-142.37;100.00;59669.53;5095567;28;20031;-75
2022/10/13 07:25:55;;;;;;;9.32;3.00;;;;;;;-142.37;100.00;59669.53;5114363;28;20388;-75
2022/10/13 07:28:24;;;;;;;10.82;2.53;;;;;;;-142.37;100.00;59669.53;5096072;28;20159;-75
2022/10/13 07:30:50;;;;;;;20.92;3.53;;;;;;;-142.37;100.00;59669.53;5114109;28;20500;-75
2022/10/13 07:33:16;;;;;;;10.68;2.67;;;;;;;-142.37;100.00;59669.53;5095467;28;20035;-73
2022/10/13 07:35:41;;;;;;;12.70;3.45;;;;;;;-142.37;100.00;59669.53;5113646;28;20023;-75
2022/10/13 07:38:07;;;;;;;12.00;3.20;;;;;;;-142.37;100.00;59669.53;5113799;28;20028;-75
2022/10/13 07:40:33;;;;;;;7.13;2.95;;;;;;;-142.37;100.00;59669.53;5113660;28;20024;-75
2022/10/13 07:43:00;;;;;;;11.70;3.53;;;;;;;-142.37;100.00;59669.53;5095603;28;20072;-72
2022/10/13 07:45:26;;;;;;;15.38;3.47;;;;;;;-142.37;100.00;59669.53;5114252;28;20023;-72
2022/10/13 07:47:51;;;;;;;8.32;2.75;;;;;;;-142.37;100.00;59669.53;5113934;28;20377;-74
2022/10/13 07:50:17;;;;;;;10.02;3.28;;;;;;;-142.37;100.00;59669.53;5113064;28;20116;-74
2022/10/13 07:52:43;;;;;;;15.23;3.42;;;;;;;-142.37;100.00;59669.53;5113033;28;20400;-74
2022/10/13 07:55:09;;;;;;;12.13;2.58;;;;;;;-142.37;100.00;59669.53;5094609;28;20472;-73
2022/10/13 07:57:35;;;;;;;9.45;2.90;;;;;;;-142.37;100.00;59669.53;5077289;28;20150;-72
2022/10/13 08:00:00;;;;;;;11.48;3.22;;;;;;;-142.37;100.00;59669.53;5071690;28;20102;-72
2022/10/13 08:02:26;;;;;;;10.27;2.75;;;;;;;-142.37;100.00;59669.53;5071399;28;20086;-73
2022/10/13 08:04:52;;;;;;;12.32;2.67;;;;;;;-142.37;100.00;59669.53;5071313;28;20382;-71
2022/10/13 08:07:18;;;;;;;13.85;3.40;;;;;;;-142.37;100.00;59669.53;5071075;28;20086;-71
2022/10/13 08:09:43;;;;;;;12.82;4.20;;;;;;;-142.37;100.00;59669.53;5070915;28;20059;-72
2022/10/13 08:12:09;;;;;;;10.27;2.85;;;;;;;-142.37;100.00;59669.53;5072401;28;20441;-70
2022/10/13 08:14:35;;;;;;;14.85;2.97;;;;;;;-142.37;100.00;59669.53;5070941;28;20043;-71
2022/10/13 08:17:00;;;;;;;10.43;2.90;;;;;;;-142.37;100.00;59669.53;5071772;28;20040;-71
2022/10/13 08:19:27;;;;;;;13.60;3.92;;;;;;;-142.37;100.00;59669.53;5072130;28;20040;-70
2022/10/13 08:21:54;;;;;;;10.45;2.65;;;;;;;-142.37;100.00;59669.53;5072650;28;20123;-71
2022/10/13 08:24:23;;;;;;;8.95;2.70;;;;;;;-142.37;100.00;59669.53;5072806;28;20105;-71
2022/10/13 08:26:49;;;;;;;9.80;2.65;;;;;;;-142.37;100.00;59669.53;5070618;28;20032;-71
2022/10/13 08:29:15;;;;;;;18.05;3.17;;;;;;;-142.37;100.00;59669.53;5070997;28;20040;-71
2022/10/13 08:31:42;;;;;;;16.02;2.92;;;;;;;-142.37;100.00;59669.53;5070126;28;20432;-71
2022/10/13 08:34:08;;;;;;;8.30;2.55;;;;;;;-142.37;100.00;59669.53;5070800;28;20028;-70
2022/10/13 08:36:34;;;;;;;14.07;3.03;;;;;;;-142.37;100.00;59669.53;5072653;28;20033;-69
2022/10/13 08:39:00;;;;;;;10.50;2.60;;;;;;;-142.37;100.00;59669.53;5071777;28;20024;-70
2022/10/13 08:41:29;;;;;;;13.02;2.97;;;;;;;-142.37;100.00;59669.53;5070700;28;20153;-70
2022/10/13 08:44:05;;;;;;;8.82;2.65;;;;;;;-142.37;100.00;59669.53;5070598;28;20032;-69
2022/10/13 08:46:42;;;;;;;17.25;3.47;;;;;;;-142.37;100.00;59669.53;5071704;28;20036;-68
2022/10/13 08:49:08;;;;;;;12.32;3.70;;;;;;;-142.37;100.00;59669.53;5071623;28;20127;-69
2022/10/13 08:51:35;;;;;;;17.58;3.25;;;;;;;-142.37;100.00;59669.53;5070136;28;20048;-70
2022/10/13 08:54:01;;;;;;;18.23;3.30;;;;;;;-142.37;100.00;59669.53;5071082;28;20357;-71
2022/10/13 08:56:32;;;;;;;11.02;2.40;;;;;;;-142.37;100.00;59669.53;5081130;28;20071;-69
2022/10/13 08:59:00;;;;;;;10.13;3.83;;;;;;;-142.37;100.00;59669.53;5112020;28;20549;-70
2022/10/13 09:01:31;;;;;;;25.65;12.15;;;;;;;-142.37;100.00;59669.53;5111534;28;20026;-68
2022/10/13 09:04:28;;;;;;;8.95;2.42;;;;;;;-142.37;100.00;59669.53;5093678;28;20032;-70
2022/10/13 09:06:57;;;;;;;9.70;2.60;;;;;;;-142.37;100.00;59669.53;5111591;28;20080;-70
2022/10/13 09:09:22;;;;;;;10.95;2.70;;;;;;;-142.37;100.00;59669.53;5111629;28;20028;-70
2022/10/13 09:11:49;;;;;;;12.65;3.78;;;;;;;-142.37;100.00;59669.53;5111542;28;20088;-68
2022/10/13 09:14:26;;;;;;;9.13;2.45;;;;;;;-142.37;100.00;59669.53;5111716;28;20030;-68
2022/10/13 09:16:53;;;;;;;11.60;2.50;;;;;;;-142.37;100.00;59669.53;5092888;28;20042;-69
2022/10/13 09:19:32;;;;;;;16.30;4.93;;;;;;;-142.37;100.00;59669.53;5110919;28;20036;-68
2022/10/13 09:22:24;;;;;;;12.20;2.53;;;;;;;-142.37;100.00;59669.53;5093119;28;20027;-67
2022/10/13 09:25:02;;;;;;;9.65;3.92;;;;;;;-142.37;100.00;59669.53;5092550;28;20092;-69
2022/10/13 09:27:42;;;;;;;9.20;2.90;;;;;;;-142.37;100.00;59669.53;5111286;28;20443;-67
2022/10/13 09:30:38;;;;;;;7.95;2.17;;;;;;;-142.37;100.00;59669.53;5092841;28;20039;-68
2022/10/13 09:33:13;;;;;;;9.18;3.20;;;;;;;-142.37;100.00;59669.53;5090687;28;20044;-67
2022/10/13 09:36:05;;;;;;;6.20;2.20;;;;;;;-142.37;100.00;59669.53;5093046;28;20138;-69
2022/10/13 09:38:31;;;;;;;11.57;2.33;;;;;;;-142.37;100.00;59669.53;5093130;28;20487;-66
2022/10/13 09:41:11;;;;;;;8.15;2.47;;;;;;;-142.37;100.00;59669.53;5092461;28;20051;-67
2022/10/13 09:43:46;;;;;;;10.10;2.33;;;;;;;-142.37;100.00;59669.53;5095205;28;20468;-69
2022/10/13 09:46:36;;;;;;;8.15;2.33;;;;;;;-142.37;100.00;59669.53;5097125;28;20057;-68
2022/10/13 09:49:06;;;;;;;8.57;2.42;;;;;;;-142.37;100.00;59669.53;5114852;28;20396;-68
2022/10/13 09:51:39;;;;;;;7.70;2.20;;;;;;;-142.37;100.00;59669.53;5095958;28;20061;-68
2022/10/13 09:54:22;;;;;;;10.40;2.70;;;;;;;-142.37;100.00;59669.53;5097152;28;20051;-68
2022/10/13 09:56:55;;;;;;;7.90;3.10;;;;;;;-142.37;100.00;59669.53;5115571;28;20055;-67
2022/10/13 09:59:34;;;;;;;12.70;3.15;;;;;;;-142.37;100.00;59669.53;5115086;28;20035;-66
2022/10/13 10:02:23;;;;;;;11.00;3.95;;;;;;;-142.37;100.00;59669.53;5095800;28;20126;-67
2022/10/13 10:04:50;;;;;;;13.70;3.20;;;;;;;-142.37;100.00;59669.53;5096045;28;20035;-67
2022/10/13 10:07:24;;;;;;;9.68;2.03;;;;;;;-142.37;100.00;59669.53;5114362;28;20500;-66
2022/10/13 10:09:56;;;;;;;10.60;2.83;;;;;;;-142.37;100.00;59669.53;5096580;28;20024;-68
2022/10/13 10:12:27;;;;;;;16.17;5.05;;;;;;;-142.37;100.00;59669.53;5096586;28;20043;-68
2022/10/13 10:14:52;;;;;;;11.35;2.10;;;;;;;-142.37;100.00;59669.53;5115744;28;20115;-68
2022/10/13 10:17:27;;;;;;;8.48;2.30;;;;;;;-142.37;100.00;59669.53;5096614;28;20180;-68
2022/10/13 10:20:19;;;;;;;9.35;2.22;;;;;;;-142.37;100.00;59669.53;5096229;28;20054;-67
2022/10/13 10:23:32;;;;;;;9.27;1.98;;;;;;;-142.37;100.00;59669.53;5114681;28;20484;-66
2022/10/13 10:26:20;;;;;;;8.15;2.03;;;;;;;-142.37;100.00;59669.53;5037426;28;20123;-67
2022/10/13 10:29:10;;;;;;;13.57;1.85;;;;;;;-142.37;100.00;59669.53;5081083;28;20041;-69
2022/10/13 10:32:11;;;;;;;8.82;3.13;;;;;;;-142.37;100.00;59669.53;5096797;28;20390;-69
2022/10/13 10:35:15;;;;;;;13.13;5.85;;;;;;;-142.37;100.00;59669.53;5096568;28;20134;-67
2022/10/13 10:38:03;;;;;;;8.20;2.00;;;;;;;-142.37;100.00;59669.53;5091782;28;20036;-67
2022/10/13 10:40:53;;;;;;;4.53;1.88;;;;;;;-142.37;100.00;59669.53;5096838;28;20474;-66
2022/10/13 10:43:34;;;;;;;5.82;1.88;;;;;;;-142.37;100.00;59669.53;5096238;28;20050;-66
2022/10/13 10:46:00;;;;;;;6.50;2.50;;;;;;;-142.37;100.00;59669.53;5114510;28;20106;-66
2022/10/13 10:48:36;;;;;;;8.73;2.33;;;;;;;-142.37;100.00;59669.53;5095810;28;20043;-66
2022/10/13 10:51:06;;;;;;;7.32;2.60;;;;;;;-142.37;100.00;59669.53;5095386;28;20096;-65
2022/10/13 10:53:51;;;;;;;8.48;2.63;;;;;;;-142.37;100.00;59669.53;5095020;28;20578;-66
2022/10/13 10:56:19;;;;;;;7.82;2.50;;;;;;;-142.37;100.00;59669.53;5113692;28;20407;-67
2022/10/13 10:58:48;;;;;;;11.05;3.17;;;;;;;-142.37;100.00;59669.53;5095150;28;20085;-66
2022/10/13 11:01:27;;;;;;;11.55;2.10;;;;;;;-142.37;100.00;59669.53;5095154;28;20464;-67
2022/10/13 11:04:04;;;;;;;10.32;3.42;;;;;;;-142.37;100.00;59669.53;5095293;28;20020;-67
2022/10/13 11:06:35;;;;;;;6.82;2.53;;;;;;;-142.37;100.00;59669.53;5095347;28;20085;-66
2022/10/13 11:09:03;;;;;;;9.48;2.28;;;;;;;-142.37;100.00;59669.53;5095878;28;20040;-65
2022/10/13 11:11:31;;;;;;;9.13;2.42;;;;;;;-142.37;100.00;59669.53;5114142;28;20038;-66
2022/10/13 11:13:59;;;;;;;5.60;1.67;;;;;;;-142.37;100.00;59669.53;5114450;28;20069;-66
2022/10/13 11:16:38;;;;;;;4.80;1.52;;;;;;;-142.37;100.00;59669.53;5114150;28;20035;-66
2022/10/13 11:19:31;;;;;;;10.48;2.50;;;;;;;-142.37;100.00;59669.53;5095590;28;20038;-65